Noemi — V7HY6 — position and weather

sailwx.info

Track history (hours):
 
Tides and Currents Weather Stations Pressure Air Temp Water Temp Dewpoint Dewpoint Depression Visibility Wind Speed Wind Dir Waves Ship Positions

Noemi

Last reported at 2014-Feb-16 14:15 UTC. Time now 2014-Jul-31 09:31 UTC.
Position N 19°40' W 107°26'.
Warning: this ship's position is months out of date.

Length 229 m; draft 8 m.

Type: Tanker. MMSI: 538002335.

Date/timePositionNaut miles runAvg speedWind from/ knotsBaromVisibWave heightAir tempDewpointWater temp
2014-Feb-16 14:15N 19°40' W 107°26'1014.9
2014-Feb-16 13:33N 19°46' W 107°35'1514.6
2014-Feb-16 12:33N 19°55' W 107°47'1514.7
2014-Feb-16 11:33N 20°05' W 107°59'1514.6
2014-Feb-16 10:33N 20°14' W 108°11'1414.4
2014-Feb-16 09:33N 20°23' W 108°23'1514.5
2014-Feb-16 08:32N 20°32' W 108°35'13114.5
2014-Feb-15 23:31N 21°55' W 110°24'1614.5
2014-Feb-15 22:23N 22°06' W 110°38'1214.5
2014-Feb-15 21:33N 22°13' W 110°48'1514.7
2014-Feb-15 20:33N 22°22' W 111°00'45614.7
2014-Feb-14 13:33N 28°22' W 116°10'2214.9
2014-Feb-14 12:06N 28°42' W 116°20'814.7
2014-Feb-14 11:33N 28°49' W 116°23'1514.6
2014-Feb-14 10:33N 29°03' W 116°30'1514.8
2014-Feb-14 09:33N 29°17' W 116°36'1514.6
2014-Feb-14 08:33N 29°30' W 116°42'1514.9
2014-Feb-14 07:33N 29°44' W 116°49'1514.7
2014-Feb-14 06:30N 29°58' W 116°55'2914.7
2014-Feb-14 04:33N 30°25' W 117°08'1514.7
2014-Feb-14 03:33N 30°38' W 117°15'1514.8
2014-Feb-14 02:33N 30°52' W 117°21'1514.5
2014-Feb-14 01:31N 31°06' W 117°26'2914.7
2014-Feb-13 23:31N 31°35' W 117°33'1414.9
2014-Feb-13 22:33N 31°49' W 117°37'1514.7
2014-Feb-13 21:33N 32°03' W 117°40'1514.7
2014-Feb-13 20:33N 32°18' W 117°44'1514.5
2014-Feb-13 19:33N 32°32' W 117°47'1313.1
2014-Feb-13 18:33N 32°44' W 117°52'1312.9
2014-Feb-13 17:33N 32°57' W 117°57'1413.6
2014-Feb-13 16:33N 33°09' W 118°02'1413.8
2014-Feb-13 15:33N 33°22' W 118°08'1413.6
2014-Feb-13 14:33N 33°35' W 118°13'7 6.8
2014-Feb-13 13:33N 33°42' W 118°12'2 1.8
2014-Feb-13 12:33N 33°44' W 118°12'3 2.6
2014-Feb-13 11:33N 33°46' W 118°13'0 0.0
2014-Feb-13 10:33N 33°46' W 118°13'0 0.0
2014-Feb-13 09:33N 33°46' W 118°13'0 0.0
2014-Feb-13 08:30N 33°46' W 118°13'0 0.0
2014-Feb-13 07:33N 33°46' W 118°13'0 0.0
2014-Feb-13 06:30N 33°46' W 118°13'0 0.0
2014-Feb-13 05:30N 33°46' W 118°13'0 0.0
2014-Feb-13 04:33N 33°46' W 118°13'0 0.0
2014-Feb-13 00:15N 33°46' W 118°13'0 0.0
2014-Feb-12 23:33N 33°46' W 118°13'0 0.0
2014-Feb-12 22:33N 33°46' W 118°13'0 0.0
2014-Feb-12 21:30N 33°46' W 118°13'0 0.0
2014-Feb-12 20:30N 33°46' W 118°13'0 0.0
2014-Feb-12 19:30N 33°46' W 118°13'0 0.0
2014-Feb-12 18:24N 33°46' W 118°13'0 0.0
2014-Feb-12 17:24N 33°46' W 118°13'0 0.0
2014-Feb-12 16:30N 33°46' W 118°13'0 0.0
2014-Feb-12 15:30N 33°46' W 118°13'0 0.0
2014-Feb-12 14:33N 33°46' W 118°13'0 0.0
2014-Feb-12 13:33N 33°46' W 118°13'0 0.0
2014-Feb-12 12:33N 33°46' W 118°13'0 0.0
2014-Feb-12 11:33N 33°46' W 118°13'0 0.0
2014-Feb-12 10:30N 33°46' W 118°13'0 0.0
2014-Feb-12 09:30N 33°46' W 118°13'0 0.0
2014-Feb-12 08:33N 33°46' W 118°13'0 0.0
2014-Feb-12 07:33N 33°46' W 118°13'0 0.0
2014-Feb-12 06:33N 33°46' W 118°13'0 0.0
2014-Feb-12 05:30N 33°46' W 118°13'0 0.0
2014-Feb-12 04:30N 33°46' W 118°13'0 0.0
2014-Feb-12 03:33N 33°46' W 118°13'0 0.0
2014-Feb-12 02:33N 33°46' W 118°13'0 0.0
2014-Feb-12 01:33N 33°46' W 118°13'0 0.0
2014-Feb-12 00:18N 33°46' W 118°13'0 0.0
2014-Feb-11 23:30N 33°46' W 118°13'0 0.0
2014-Feb-11 22:30N 33°46' W 118°13'0 0.0
2014-Feb-11 21:33N 33°46' W 118°13'0 0.0
2014-Feb-11 20:33N 33°46' W 118°13'0 0.0
2014-Feb-11 19:30N 33°46' W 118°13'0 0.0
2014-Feb-11 18:33N 33°46' W 118°13'2 2.1
2014-Feb-11 17:33N 33°44' W 118°13'1 0.5
2014-Feb-11 16:29N 33°44' W 118°13'0 0.1
2014-Feb-11 15:32N 33°44' W 118°13'3 3.4
2014-Feb-11 14:33N 33°42' W 118°10'1 0.6
2014-Feb-11 13:33N 33°42' W 118°09'0 0.1
2014-Feb-11 12:33N 33°42' W 118°09'0 0.0
2014-Feb-11 11:33N 33°42' W 118°09'0 0.0
2014-Feb-11 07:15N 33°42' W 118°09'13 0.9
2014-Feb-10 16:09N 33°29' W 118°07'5 9.1
2014-Feb-10 15:33N 33°24' W 118°05'9 9.0
2014-Feb-10 14:33N 33°15' W 118°01'1211.7
2014-Feb-10 13:33N 33°04' W 117°57'1212.2
2014-Feb-10 12:33N 32°53' W 117°52'8 7.7
2014-Feb-10 11:33N 32°46' W 117°49'1211.9
2014-Feb-10 10:33N 32°34' W 117°46'1010.2
2014-Feb-10 09:33N 32°24' W 117°44'1111.3
2014-Feb-10 08:33N 32°13' W 117°41'1212.0
2014-Feb-10 07:33N 32°01' W 117°39'  
Track history (hours):
 
Tides and Currents Weather Stations Pressure Air Temp Water Temp Dewpoint Dewpoint Depression Visibility Wind Speed Wind Dir Waves Ship Positions

Noemi

Last reported at 2014-Feb-16 14:15 UTC. Time now 2014-Jul-31 09:31 UTC.
Position N 19°40' W 107°26'.
Warning: this ship's position is months out of date.

Length 229 m; draft 8 m.

Type: Tanker. MMSI: 538002335.

Date/timePositionNaut miles runAvg speedWind from/ knotsBaromVisibWave heightAir tempDewpointWater temp
2014-Feb-16 14:15N 19°40' W 107°26'1014.9
2014-Feb-16 13:33N 19°46' W 107°35'1514.6
2014-Feb-16 12:33N 19°55' W 107°47'1514.7
2014-Feb-16 11:33N 20°05' W 107°59'1514.6
2014-Feb-16 10:33N 20°14' W 108°11'1414.4
2014-Feb-16 09:33N 20°23' W 108°23'1514.5
2014-Feb-16 08:32N 20°32' W 108°35'13114.5
2014-Feb-15 23:31N 21°55' W 110°24'1614.5
2014-Feb-15 22:23N 22°06' W 110°38'1214.5
2014-Feb-15 21:33N 22°13' W 110°48'1514.7
2014-Feb-15 20:33N 22°22' W 111°00'45614.7
2014-Feb-14 13:33N 28°22' W 116°10'2214.9
2014-Feb-14 12:06N 28°42' W 116°20'814.7
2014-Feb-14 11:33N 28°49' W 116°23'1514.6
2014-Feb-14 10:33N 29°03' W 116°30'1514.8
2014-Feb-14 09:33N 29°17' W 116°36'1514.6
2014-Feb-14 08:33N 29°30' W 116°42'1514.9
2014-Feb-14 07:33N 29°44' W 116°49'1514.7
2014-Feb-14 06:30N 29°58' W 116°55'2914.7
2014-Feb-14 04:33N 30°25' W 117°08'1514.7
2014-Feb-14 03:33N 30°38' W 117°15'1514.8
2014-Feb-14 02:33N 30°52' W 117°21'1514.5
2014-Feb-14 01:31N 31°06' W 117°26'2914.7
2014-Feb-13 23:31N 31°35' W 117°33'1414.9
2014-Feb-13 22:33N 31°49' W 117°37'1514.7
2014-Feb-13 21:33N 32°03' W 117°40'1514.7
2014-Feb-13 20:33N 32°18' W 117°44'1514.5
2014-Feb-13 19:33N 32°32' W 117°47'1313.1
2014-Feb-13 18:33N 32°44' W 117°52'1312.9
2014-Feb-13 17:33N 32°57' W 117°57'1413.6
2014-Feb-13 16:33N 33°09' W 118°02'1413.8
2014-Feb-13 15:33N 33°22' W 118°08'1413.6
2014-Feb-13 14:33N 33°35' W 118°13'7 6.8
2014-Feb-13 13:33N 33°42' W 118°12'2 1.8
2014-Feb-13 12:33N 33°44' W 118°12'3 2.6
2014-Feb-13 11:33N 33°46' W 118°13'0 0.0
2014-Feb-13 10:33N 33°46' W 118°13'0 0.0
2014-Feb-13 09:33N 33°46' W 118°13'0 0.0
2014-Feb-13 08:30N 33°46' W 118°13'0 0.0
2014-Feb-13 07:33N 33°46' W 118°13'0 0.0
2014-Feb-13 06:30N 33°46' W 118°13'0 0.0
2014-Feb-13 05:30N 33°46' W 118°13'0 0.0
2014-Feb-13 04:33N 33°46' W 118°13'0 0.0
2014-Feb-13 00:15N 33°46' W 118°13'0 0.0
2014-Feb-12 23:33N 33°46' W 118°13'0 0.0
2014-Feb-12 22:33N 33°46' W 118°13'0 0.0
2014-Feb-12 21:30N 33°46' W 118°13'0 0.0
2014-Feb-12 20:30N 33°46' W 118°13'0 0.0
2014-Feb-12 19:30N 33°46' W 118°13'0 0.0
2014-Feb-12 18:24N 33°46' W 118°13'0 0.0
2014-Feb-12 17:24N 33°46' W 118°13'0 0.0
2014-Feb-12 16:30N 33°46' W 118°13'0 0.0
2014-Feb-12 15:30N 33°46' W 118°13'0 0.0
2014-Feb-12 14:33N 33°46' W 118°13'0 0.0
2014-Feb-12 13:33N 33°46' W 118°13'0 0.0
2014-Feb-12 12:33N 33°46' W 118°13'0 0.0
2014-Feb-12 11:33N 33°46' W 118°13'0 0.0
2014-Feb-12 10:30N 33°46' W 118°13'0 0.0
2014-Feb-12 09:30N 33°46' W 118°13'0 0.0
2014-Feb-12 08:33N 33°46' W 118°13'0 0.0
2014-Feb-12 07:33N 33°46' W 118°13'0 0.0
2014-Feb-12 06:33N 33°46' W 118°13'0 0.0
2014-Feb-12 05:30N 33°46' W 118°13'0 0.0
2014-Feb-12 04:30N 33°46' W 118°13'0 0.0
2014-Feb-12 03:33N 33°46' W 118°13'0 0.0
2014-Feb-12 02:33N 33°46' W 118°13'0 0.0
2014-Feb-12 01:33N 33°46' W 118°13'0 0.0
2014-Feb-12 00:18N 33°46' W 118°13'0 0.0
2014-Feb-11 23:30N 33°46' W 118°13'0 0.0
2014-Feb-11 22:30N 33°46' W 118°13'0 0.0
2014-Feb-11 21:33N 33°46' W 118°13'0 0.0
2014-Feb-11 20:33N 33°46' W 118°13'0 0.0
2014-Feb-11 19:30N 33°46' W 118°13'0 0.0
2014-Feb-11 18:33N 33°46' W 118°13'2 2.1
2014-Feb-11 17:33N 33°44' W 118°13'1 0.5
2014-Feb-11 16:29N 33°44' W 118°13'0 0.1
2014-Feb-11 15:32N 33°44' W 118°13'3 3.4
2014-Feb-11 14:33N 33°42' W 118°10'1 0.6
2014-Feb-11 13:33N 33°42' W 118°09'0 0.1
2014-Feb-11 12:33N 33°42' W 118°09'0 0.0
2014-Feb-11 11:33N 33°42' W 118°09'0 0.0
2014-Feb-11 07:15N 33°42' W 118°09'13 0.9
2014-Feb-10 16:09N 33°29' W 118°07'5 9.1
2014-Feb-10 15:33N 33°24' W 118°05'9 9.0
2014-Feb-10 14:33N 33°15' W 118°01'1211.7
2014-Feb-10 13:33N 33°04' W 117°57'1212.2
2014-Feb-10 12:33N 32°53' W 117°52'8 7.7
2014-Feb-10 11:33N 32°46' W 117°49'1211.9
2014-Feb-10 10:33N 32°34' W 117°46'1010.2
2014-Feb-10 09:33N 32°24' W 117°44'1111.3
2014-Feb-10 08:33N 32°13' W 117°41'1212.0
2014-Feb-10 07:33N 32°01' W 117°39'  

Dump ship's entire track history